sensor_id;sensor_type;location;lat;lon;timestamp;pressure;altitude;pressure_sealevel;temperature;humidity
71976;BME280;68326;52.124;5.424;2024-03-22T00:00:13;102093.41;;;13.12;84.43
71976;BME280;68326;52.124;5.424;2024-03-22T00:02:39;102094.25;;;13.13;85.61
71976;BME280;68326;52.124;5.424;2024-03-22T00:05:04;102088.91;;;13.16;85.76
71976;BME280;68326;52.124;5.424;2024-03-22T00:07:30;102083.53;;;13.19;85.75
71976;BME280;68326;52.124;5.424;2024-03-22T00:09:56;102079.81;;;13.24;85.47
71976;BME280;68326;52.124;5.424;2024-03-22T00:12:22;102073.75;;;13.24;85.86
71976;BME280;68326;52.124;5.424;2024-03-22T00:14:47;102066.59;;;13.29;85.51
71976;BME280;68326;52.124;5.424;2024-03-22T00:17:13;102063.22;;;13.25;86.07
71976;BME280;68326;52.124;5.424;2024-03-22T00:19:39;102058.06;;;13.24;85.96
71976;BME280;68326;52.124;5.424;2024-03-22T00:22:04;102053.53;;;13.27;86.10
71976;BME280;68326;52.124;5.424;2024-03-22T00:24:30;102045.91;;;13.23;86.81
71976;BME280;68326;52.124;5.424;2024-03-22T00:26:55;102042.50;;;13.21;87.01
71976;BME280;68326;52.124;5.424;2024-03-22T00:29:21;102037.16;;;13.24;86.44
71976;BME280;68326;52.124;5.424;2024-03-22T00:31:46;102034.59;;;13.22;86.35
71976;BME280;68326;52.124;5.424;2024-03-22T00:34:12;102027.66;;;13.21;86.74
71976;BME280;68326;52.124;5.424;2024-03-22T00:36:37;102029.44;;;13.21;86.36
71976;BME280;68326;52.124;5.424;2024-03-22T00:39:03;102024.41;;;13.16;86.76
71976;BME280;68326;52.124;5.424;2024-03-22T00:41:28;102024.59;;;13.12;86.98
71976;BME280;68326;52.124;5.424;2024-03-22T00:43:54;102017.47;;;13.15;87.09
71976;BME280;68326;52.124;5.424;2024-03-22T00:46:20;102010.41;;;13.17;86.88
71976;BME280;68326;52.124;5.424;2024-03-22T00:48:45;101996.63;;;13.14;87.33
71976;BME280;68326;52.124;5.424;2024-03-22T00:51:11;101987.91;;;13.13;87.55
71976;BME280;68326;52.124;5.424;2024-03-22T00:53:36;101983.56;;;13.14;88.10
71976;BME280;68326;52.124;5.424;2024-03-22T00:56:02;101988.91;;;13.11;88.13
71976;BME280;68326;52.124;5.424;2024-03-22T00:58:28;101982.78;;;13.12;88.44
71976;BME280;68326;52.124;5.424;2024-03-22T01:00:54;101978.34;;;13.14;88.32
71976;BME280;68326;52.124;5.424;2024-03-22T01:03:20;101977.56;;;13.12;88.55
71976;BME280;68326;52.124;5.424;2024-03-22T01:05:46;101979.25;;;13.13;88.68
71976;BME280;68326;52.124;5.424;2024-03-22T01:08:12;101980.16;;;13.12;88.44
71976;BME280;68326;52.124;5.424;2024-03-22T01:10:37;101986.25;;;13.12;88.91
71976;BME280;68326;52.124;5.424;2024-03-22T01:13:03;101972.19;;;13.15;88.73
71976;BME280;68326;52.124;5.424;2024-03-22T01:15:28;101976.56;;;13.14;89.19
71976;BME280;68326;52.124;5.424;2024-03-22T01:17:55;101970.25;;;13.20;88.74
71976;BME280;68326;52.124;5.424;2024-03-22T01:20:20;101967.63;;;13.20;88.73
71976;BME280;68326;52.124;5.424;2024-03-22T01:22:46;101976.31;;;13.20;88.73
71976;BME280;68326;52.124;5.424;2024-03-22T01:25:11;101971.13;;;13.19;89.46
71976;BME280;68326;52.124;5.424;2024-03-22T01:27:37;101971.03;;;13.22;88.73
71976;BME280;68326;52.124;5.424;2024-03-22T01:30:03;101973.44;;;13.26;88.70
71976;BME280;68326;52.124;5.424;2024-03-22T01:32:28;101964.13;;;13.19;89.29
71976;BME280;68326;52.124;5.424;2024-03-22T01:34:54;101965.66;;;13.25;88.98
71976;BME280;68326;52.124;5.424;2024-03-22T01:37:19;101964.13;;;13.19;89.41
71976;BME280;68326;52.124;5.424;2024-03-22T01:39:46;101964.09;;;13.21;89.56
71976;BME280;68326;52.124;5.424;2024-03-22T01:42:11;101958.22;;;13.16;89.32
71976;BME280;68326;52.124;5.424;2024-03-22T01:44:37;101960.56;;;13.22;89.29
71976;BME280;68326;52.124;5.424;2024-03-22T01:47:03;101955.50;;;13.17;89.43
71976;BME280;68326;52.124;5.424;2024-03-22T01:49:29;101950.16;;;13.20;90.12
71976;BME280;68326;52.124;5.424;2024-03-22T01:51:55;101943.94;;;13.23;90.10
71976;BME280;68326;52.124;5.424;2024-03-22T01:54:21;101939.66;;;13.22;89.49
71976;BME280;68326;52.124;5.424;2024-03-22T01:56:47;101939.78;;;13.19;90.05
71976;BME280;68326;52.124;5.424;2024-03-22T01:59:13;101938.94;;;13.18;89.93
71976;BME280;68326;52.124;5.424;2024-03-22T02:01:39;101944.16;;;13.18;89.55
71976;BME280;68326;52.124;5.424;2024-03-22T02:04:05;101950.13;;;13.22;89.46
71976;BME280;68326;52.124;5.424;2024-03-22T02:06:31;101949.31;;;13.20;90.42
71976;BME280;68326;52.124;5.424;2024-03-22T02:08:57;101949.13;;;13.24;89.93
71976;BME280;68326;52.124;5.424;2024-03-22T02:11:25;101939.72;;;13.20;90.40
71976;BME280;68326;52.124;5.424;2024-03-22T02:13:51;101936.13;;;13.23;90.41
71976;BME280;68326;52.124;5.424;2024-03-22T02:16:16;101938.72;;;13.23;89.65
71976;BME280;68326;52.124;5.424;2024-03-22T02:18:42;101936.00;;;13.26;89.89
71976;BME280;68326;52.124;5.424;2024-03-22T02:21:08;101928.22;;;13.24;89.79
71976;BME280;68326;52.124;5.424;2024-03-22T02:23:37;101933.28;;;13.27;89.18
71976;BME280;68326;52.124;5.424;2024-03-22T02:26:04;101938.34;;;13.32;89.45
71976;BME280;68326;52.124;5.424;2024-03-22T02:28:30;101918.44;;;13.28;88.58
71976;BME280;68326;52.124;5.424;2024-03-22T02:30:57;101917.75;;;13.24;88.72
71976;BME280;68326;52.124;5.424;2024-03-22T02:33:23;101915.09;;;13.26;88.79
71976;BME280;68326;52.124;5.424;2024-03-22T02:35:49;101913.53;;;13.22;89.21
71976;BME280;68326;52.124;5.424;2024-03-22T02:38:15;101914.31;;;13.24;88.70
71976;BME280;68326;52.124;5.424;2024-03-22T02:40:43;101913.19;;;13.30;88.36
71976;BME280;68326;52.124;5.424;2024-03-22T02:43:09;101916.91;;;13.24;88.25
71976;BME280;68326;52.124;5.424;2024-03-22T02:45:34;101908.47;;;13.17;88.15
71976;BME280;68326;52.124;5.424;2024-03-22T02:48:00;101911.97;;;13.18;87.51
71976;BME280;68326;52.124;5.424;2024-03-22T02:50:25;101895.28;;;13.20;87.78
71976;BME280;68326;52.124;5.424;2024-03-22T02:52:51;101889.13;;;13.21;87.63
71976;BME280;68326;52.124;5.424;2024-03-22T02:55:17;101884.03;;;13.18;87.06
71976;BME280;68326;52.124;5.424;2024-03-22T02:57:42;101881.56;;;13.15;87.21
71976;BME280;68326;52.124;5.424;2024-03-22T03:00:08;101875.63;;;13.12;87.88
71976;BME280;68326;52.124;5.424;2024-03-22T03:02:34;101872.03;;;13.14;87.23
71976;BME280;68326;52.124;5.424;2024-03-22T03:05:00;101862.78;;;13.07;86.81
71976;BME280;68326;52.124;5.424;2024-03-22T03:07:25;101854.22;;;13.03;87.36
71976;BME280;68326;52.124;5.424;2024-03-22T03:09:51;101846.38;;;13.03;87.61
71976;BME280;68326;52.124;5.424;2024-03-22T03:12:17;101836.03;;;13.00;87.57
71976;BME280;68326;52.124;5.424;2024-03-22T03:14:42;101836.25;;;12.96;86.96
71976;BME280;68326;52.124;5.424;2024-03-22T03:17:08;101839.22;;;12.88;86.94
71976;BME280;68326;52.124;5.424;2024-03-22T03:19:33;101833.53;;;12.78;86.86
71976;BME280;68326;52.124;5.424;2024-03-22T03:21:59;101837.09;;;12.77;87.75
71976;BME280;68326;52.124;5.424;2024-03-22T03:24:24;101830.09;;;12.78;86.93
71976;BME280;68326;52.124;5.424;2024-03-22T03:26:50;101830.22;;;12.75;87.96
71976;BME280;68326;52.124;5.424;2024-03-22T03:29:16;101831.91;;;12.76;87.03
71976;BME280;68326;52.124;5.424;2024-03-22T03:31:41;101834.00;;;12.68;87.21
71976;BME280;68326;52.124;5.424;2024-03-22T03:34:07;101825.53;;;12.62;87.84
71976;BME280;68326;52.124;5.424;2024-03-22T03:36:32;101819.53;;;12.60;87.31
71976;BME280;68326;52.124;5.424;2024-03-22T03:38:58;101810.19;;;12.55;87.63
71976;BME280;68326;52.124;5.424;2024-03-22T03:41:23;101817.25;;;12.53;87.45
71976;BME280;68326;52.124;5.424;2024-03-22T03:43:49;101800.94;;;12.48;88.04
71976;BME280;68326;52.124;5.424;2024-03-22T03:46:14;101798.97;;;12.53;87.42
71976;BME280;68326;52.124;5.424;2024-03-22T03:48:40;101792.31;;;12.46;87.98
71976;BME280;68326;52.124;5.424;2024-03-22T03:51:05;101795.63;;;12.49;87.87
71976;BME280;68326;52.124;5.424;2024-03-22T03:53:31;101796.75;;;12.43;88.15
71976;BME280;68326;52.124;5.424;2024-03-22T03:55:57;101792.31;;;12.46;88.23
71976;BME280;68326;52.124;5.424;2024-03-22T03:58:22;101776.78;;;12.42;88.22
71976;BME280;68326;52.124;5.424;2024-03-22T04:00:48;101786.44;;;12.40;88.62
71976;BME280;68326;52.124;5.424;2024-03-22T04:03:14;101790.56;;;12.46;88.54
71976;BME280;68326;52.124;5.424;2024-03-22T04:05:39;101782.72;;;12.46;88.26
71976;BME280;68326;52.124;5.424;2024-03-22T04:08:05;101785.66;;;12.38;88.26
71976;BME280;68326;52.124;5.424;2024-03-22T04:10:30;101783.03;;;12.38;87.84
71976;BME280;68326;52.124;5.424;2024-03-22T04:12:56;101778.75;;;12.37;87.25
71976;BME280;68326;52.124;5.424;2024-03-22T04:15:21;101784.09;;;12.34;87.21
71976;BME280;68326;52.124;5.424;2024-03-22T04:17:47;101784.19;;;12.33;87.70
71976;BME280;68326;52.124;5.424;2024-03-22T04:20:12;101790.66;;;12.43;86.73
71976;BME280;68326;52.124;5.424;2024-03-22T04:22:38;101794.66;;;12.31;86.75
71976;BME280;68326;52.124;5.424;2024-03-22T04:25:04;101791.28;;;12.29;87.23
71976;BME280;68326;52.124;5.424;2024-03-22T04:27:29;101786.91;;;12.30;87.59
71976;BME280;68326;52.124;5.424;2024-03-22T04:29:55;101782.41;;;12.33;87.47
71976;BME280;68326;52.124;5.424;2024-03-22T04:32:21;101781.63;;;12.31;87.45
71976;BME280;68326;52.124;5.424;2024-03-22T04:34:46;101789.44;;;12.31;87.18
71976;BME280;68326;52.124;5.424;2024-03-22T04:37:12;101776.59;;;12.27;87.17
71976;BME280;68326;52.124;5.424;2024-03-22T04:39:39;101775.94;;;12.21;87.66
71976;BME280;68326;52.124;5.424;2024-03-22T04:42:05;101780.06;;;12.27;86.75
71976;BME280;68326;52.124;5.424;2024-03-22T04:44:30;101777.50;;;12.26;87.44
71976;BME280;68326;52.124;5.424;2024-03-22T04:46:56;101777.50;;;12.26;86.72
71976;BME280;68326;52.124;5.424;2024-03-22T04:49:21;101793.09;;;12.27;86.58
71976;BME280;68326;52.124;5.424;2024-03-22T04:51:47;101786.94;;;12.28;86.45
71976;BME280;68326;52.124;5.424;2024-03-22T04:54:12;101786.13;;;12.28;86.90
71976;BME280;68326;52.124;5.424;2024-03-22T04:56:39;101780.06;;;12.27;86.54
71976;BME280;68326;52.124;5.424;2024-03-22T04:59:05;101780.56;;;12.35;86.23
71976;BME280;68326;52.124;5.424;2024-03-22T05:01:30;101778.47;;;12.23;86.97
71976;BME280;68326;52.124;5.424;2024-03-22T05:03:56;101787.28;;;12.20;86.90
71976;BME280;68326;52.124;5.424;2024-03-22T05:06:21;101782.72;;;12.26;86.50
71976;BME280;68326;52.124;5.424;2024-03-22T05:08:47;101783.06;;;12.18;87.19
71976;BME280;68326;52.124;5.424;2024-03-22T05:11:12;101786.47;;;12.20;86.60
71976;BME280;68326;52.124;5.424;2024-03-22T05:13:38;101782.97;;;12.19;86.79
71976;BME280;68326;52.124;5.424;2024-03-22T05:16:06;101782.06;;;12.20;86.91
71976;BME280;68326;52.124;5.424;2024-03-22T05:18:32;101768.00;;;12.24;86.58
71976;BME280;68326;52.124;5.424;2024-03-22T05:20:57;101780.38;;;12.19;86.63
71976;BME280;68326;52.124;5.424;2024-03-22T05:23:23;101784.00;;;12.15;87.41
71976;BME280;68326;52.124;5.424;2024-03-22T05:25:48;101784.78;;;12.17;87.28
71976;BME280;68326;52.124;5.424;2024-03-22T05:28:14;101773.31;;;12.21;86.74
71976;BME280;68326;52.124;5.424;2024-03-22T05:30:39;101770.78;;;12.20;86.70
71976;BME280;68326;52.124;5.424;2024-03-22T05:33:05;101764.06;;;12.14;86.79
71976;BME280;68326;52.124;5.424;2024-03-22T05:35:31;101758.78;;;12.16;86.55
71976;BME280;68326;52.124;5.424;2024-03-22T05:37:56;101759.56;;;12.18;86.43
71976;BME280;68326;52.124;5.424;2024-03-22T05:40:22;101764.06;;;12.14;86.66
71976;BME280;68326;52.124;5.424;2024-03-22T05:42:48;101756.97;;;12.18;86.51
71976;BME280;68326;52.124;5.424;2024-03-22T05:45:13;101755.00;;;12.23;86.10
71976;BME280;68326;52.124;5.424;2024-03-22T05:47:39;101747.44;;;12.17;86.68
71976;BME280;68326;52.124;5.424;2024-03-22T05:50:05;101743.13;;;12.16;86.49
71976;BME280;68326;52.124;5.424;2024-03-22T05:52:34;101752.00;;;12.12;85.99
71976;BME280;68326;52.124;5.424;2024-03-22T05:55:00;101748.47;;;12.13;85.89
71976;BME280;68326;52.124;5.424;2024-03-22T05:57:25;101743.25;;;12.13;85.99
71976;BME280;68326;52.124;5.424;2024-03-22T05:59:51;101745.84;;;12.13;86.06
71976;BME280;68326;52.124;5.424;2024-03-22T06:02:18;101734.91;;;12.04;86.61
71976;BME280;68326;52.124;5.424;2024-03-22T06:04:44;101722.63;;;12.07;86.80
71976;BME280;68326;52.124;5.424;2024-03-22T06:07:10;101730.47;;;12.07;86.35
71976;BME280;68326;52.124;5.424;2024-03-22T06:09:36;101736.47;;;12.09;86.31
71976;BME280;68326;52.124;5.424;2024-03-22T06:12:21;101739.84;;;12.11;86.22
71976;BME280;68326;52.124;5.424;2024-03-22T06:14:47;101729.56;;;12.08;86.40
71976;BME280;68326;52.124;5.424;2024-03-22T06:17:13;101733.75;;;12.12;86.65
71976;BME280;68326;52.124;5.424;2024-03-22T06:19:40;101725.03;;;12.11;86.35
71976;BME280;68326;52.124;5.424;2024-03-22T06:22:06;101734.38;;;12.17;85.93
71976;BME280;68326;52.124;5.424;2024-03-22T06:24:32;101733.66;;;12.13;86.62
71976;BME280;68326;52.124;5.424;2024-03-22T06:26:57;101732.63;;;12.17;85.56
71976;BME280;68326;52.124;5.424;2024-03-22T06:29:23;101732.28;;;12.25;85.51
71976;BME280;68326;52.124;5.424;2024-03-22T06:31:48;101718.53;;;12.21;85.89
71976;BME280;68326;52.124;5.424;2024-03-22T06:34:15;101724.47;;;12.25;85.37
71976;BME280;68326;52.124;5.424;2024-03-22T06:36:41;101727.00;;;12.27;85.18
71976;BME280;68326;52.124;5.424;2024-03-22T06:39:07;101725.25;;;12.27;85.04
71976;BME280;68326;52.124;5.424;2024-03-22T06:41:34;101732.03;;;12.31;85.53
71976;BME280;68326;52.124;5.424;2024-03-22T06:44:00;101727.72;;;12.30;85.03
71976;BME280;68326;52.124;5.424;2024-03-22T06:46:25;101723.28;;;12.32;84.52
71976;BME280;68326;52.124;5.424;2024-03-22T06:48:52;101728.22;;;12.38;84.28
71976;BME280;68326;52.124;5.424;2024-03-22T06:51:17;101721.19;;;12.40;84.26
71976;BME280;68326;52.124;5.424;2024-03-22T06:53:43;101723.00;;;12.38;84.23
71976;BME280;68326;52.124;5.424;2024-03-22T06:56:10;101731.50;;;12.43;84.04
71976;BME280;68326;52.124;5.424;2024-03-22T06:58:40;101727.06;;;12.46;84.16
71976;BME280;68326;52.124;5.424;2024-03-22T07:01:05;101728.13;;;12.41;84.63
71976;BME280;68326;52.124;5.424;2024-03-22T07:03:31;101724.31;;;12.49;83.97
71976;BME280;68326;52.124;5.424;2024-03-22T07:05:57;101724.03;;;12.55;83.82
71976;BME280;68326;52.124;5.424;2024-03-22T07:08:26;101726.00;;;12.50;84.10
71976;BME280;68326;52.124;5.424;2024-03-22T07:10:52;101723.19;;;12.54;83.29
71976;BME280;68326;52.124;5.424;2024-03-22T07:13:19;101722.25;;;12.55;82.98
71976;BME280;68326;52.124;5.424;2024-03-22T07:15:45;101732.78;;;12.54;84.04
71976;BME280;68326;52.124;5.424;2024-03-22T07:18:10;101722.00;;;12.61;83.69
71976;BME280;68326;52.124;5.424;2024-03-22T07:20:36;101726.44;;;12.59;83.35
71976;BME280;68326;52.124;5.424;2024-03-22T07:23:01;101719.53;;;12.58;83.40
71976;BME280;68326;52.124;5.424;2024-03-22T07:25:29;101723.41;;;12.69;83.27
71976;BME280;68326;52.124;5.424;2024-03-22T07:27:55;101718.53;;;12.61;83.17
71976;BME280;68326;52.124;5.424;2024-03-22T07:30:21;101722.78;;;12.63;82.96
71976;BME280;68326;52.124;5.424;2024-03-22T07:32:47;101730.41;;;12.68;82.33
71976;BME280;68326;52.124;5.424;2024-03-22T07:35:13;101726.38;;;12.61;82.38
71976;BME280;68326;52.124;5.424;2024-03-22T07:37:38;101735.78;;;12.65;82.60
71976;BME280;68326;52.124;5.424;2024-03-22T07:40:04;101729.56;;;12.68;82.66
71976;BME280;68326;52.124;5.424;2024-03-22T07:42:30;101729.75;;;12.63;82.18
71976;BME280;68326;52.124;5.424;2024-03-22T07:44:56;101721.94;;;12.63;82.75
71976;BME280;68326;52.124;5.424;2024-03-22T07:47:22;101719.31;;;12.63;82.47
71976;BME280;68326;52.124;5.424;2024-03-22T07:49:47;101715.00;;;12.62;82.48
71976;BME280;68326;52.124;5.424;2024-03-22T07:52:13;101719.81;;;12.52;82.33
71976;BME280;68326;52.124;5.424;2024-03-22T07:54:38;101718.03;;;12.53;82.33
71976;BME280;68326;52.124;5.424;2024-03-22T07:57:04;101709.94;;;12.59;82.00
71976;BME280;68326;52.124;5.424;2024-03-22T07:59:29;101720.88;;;12.67;81.75
71976;BME280;68326;52.124;5.424;2024-03-22T08:01:55;101722.94;;;12.60;82.84
71976;BME280;68326;52.124;5.424;2024-03-22T08:04:22;101727.00;;;12.66;82.08
71976;BME280;68326;52.124;5.424;2024-03-22T08:06:48;101722.66;;;12.67;82.30
71976;BME280;68326;52.124;5.424;2024-03-22T08:09:15;101718.28;;;12.67;82.25
71976;BME280;68326;52.124;5.424;2024-03-22T08:11:41;101719.94;;;12.68;82.39
71976;BME280;68326;52.124;5.424;2024-03-22T08:14:07;101720.31;;;12.60;82.32
71976;BME280;68326;52.124;5.424;2024-03-22T08:16:33;101715.88;;;12.62;82.32
71976;BME280;68326;52.124;5.424;2024-03-22T08:18:59;101722.78;;;12.63;82.82
71976;BME280;68326;52.124;5.424;2024-03-22T08:21:25;101722.16;;;12.58;83.46
71976;BME280;68326;52.124;5.424;2024-03-22T08:23:51;101717.13;;;12.54;83.36
71976;BME280;68326;52.124;5.424;2024-03-22T08:26:17;101710.34;;;12.50;83.85
71976;BME280;68326;52.124;5.424;2024-03-22T08:28:44;101711.19;;;12.50;84.79
71976;BME280;68326;52.124;5.424;2024-03-22T08:31:10;101712.09;;;12.49;85.31
71976;BME280;68326;52.124;5.424;2024-03-22T08:33:36;101720.97;;;12.45;86.16
71976;BME280;68326;52.124;5.424;2024-03-22T08:36:01;101713.88;;;12.49;86.45
71976;BME280;68326;52.124;5.424;2024-03-22T08:38:27;101707.75;;;12.50;85.86
71976;BME280;68326;52.124;5.424;2024-03-22T08:40:55;101723.09;;;12.37;86.57
71976;BME280;68326;52.124;5.424;2024-03-22T08:43:21;101711.56;;;12.41;87.84
71976;BME280;68326;52.124;5.424;2024-03-22T08:45:48;101707.13;;;12.43;87.92
71976;BME280;68326;52.124;5.424;2024-03-22T08:48:13;101706.34;;;12.41;88.15
71976;BME280;68326;52.124;5.424;2024-03-22T08:50:42;101714.00;;;12.46;88.01
71976;BME280;68326;52.124;5.424;2024-03-22T08:53:07;101708.06;;;12.42;88.81
71976;BME280;68326;52.124;5.424;2024-03-22T08:55:33;101702.78;;;12.43;88.58
71976;BME280;68326;52.124;5.424;2024-03-22T08:57:58;101715.13;;;12.40;87.96
71976;BME280;68326;52.124;5.424;2024-03-22T09:00:24;101712.72;;;12.35;88.86
71976;BME280;68326;52.124;5.424;2024-03-22T09:02:49;101713.69;;;12.33;88.87
71976;BME280;68326;52.124;5.424;2024-03-22T09:05:15;101704.09;;;12.33;88.97
71976;BME280;68326;52.124;5.424;2024-03-22T09:07:41;101711.00;;;12.34;89.31
71976;BME280;68326;52.124;5.424;2024-03-22T09:10:07;101714.41;;;12.36;89.66
71976;BME280;68326;52.124;5.424;2024-03-22T09:12:34;101712.56;;;12.38;90.34
71976;BME280;68326;52.124;5.424;2024-03-22T09:15:00;101704.88;;;12.35;90.02
71976;BME280;68326;52.124;5.424;2024-03-22T09:17:26;101704.16;;;12.32;90.36
71976;BME280;68326;52.124;5.424;2024-03-22T09:19:51;101709.38;;;12.32;90.53
71976;BME280;68326;52.124;5.424;2024-03-22T09:22:17;101709.31;;;12.33;90.92
71976;BME280;68326;52.124;5.424;2024-03-22T09:24:42;101705.09;;;12.31;91.39
71976;BME280;68326;52.124;5.424;2024-03-22T09:27:08;101702.66;;;12.26;91.80
71976;BME280;68326;52.124;5.424;2024-03-22T09:29:37;101700.50;;;12.36;92.19
71976;BME280;68326;52.124;5.424;2024-03-22T09:32:03;101701.34;;;12.36;91.88
71976;BME280;68326;52.124;5.424;2024-03-22T09:34:29;101698.72;;;12.36;92.16
71976;BME280;68326;52.124;5.424;2024-03-22T09:36:57;101695.22;;;12.37;92.51
71976;BME280;68326;52.124;5.424;2024-03-22T09:39:23;101696.78;;;12.41;91.82
71976;BME280;68326;52.124;5.424;2024-03-22T09:41:50;101693.41;;;12.39;92.40
71976;BME280;68326;52.124;5.424;2024-03-22T09:44:18;101693.41;;;12.39;93.31
71976;BME280;68326;52.124;5.424;2024-03-22T09:46:46;101699.31;;;12.43;93.13
71976;BME280;68326;52.124;5.424;2024-03-22T09:49:12;101695.91;;;12.41;93.15
71976;BME280;68326;52.124;5.424;2024-03-22T09:51:42;101691.19;;;12.49;91.95
71976;BME280;68326;52.124;5.424;2024-03-22T09:54:11;101691.56;;;12.41;92.91
71976;BME280;68326;52.124;5.424;2024-03-22T09:56:41;101691.47;;;12.43;93.07
71976;BME280;68326;52.124;5.424;2024-03-22T09:59:07;101689.94;;;12.39;93.61
71976;BME280;68326;52.124;5.424;2024-03-22T10:01:34;101687.91;;;12.46;93.54
71976;BME280;68326;52.124;5.424;2024-03-22T10:04:00;101686.56;;;12.56;94.01
71976;BME280;68326;52.124;5.424;2024-03-22T10:06:26;101686.72;;;12.53;93.40
71976;BME280;68326;52.124;5.424;2024-03-22T10:08:51;101686.91;;;12.48;93.68
71976;BME280;68326;52.124;5.424;2024-03-22T10:11:17;101681.03;;;12.43;93.38
71976;BME280;68326;52.124;5.424;2024-03-22T10:13:43;101686.13;;;12.46;93.94
71976;BME280;68326;52.124;5.424;2024-03-22T10:16:10;101682.69;;;12.46;93.91
71976;BME280;68326;52.124;5.424;2024-03-22T10:18:36;101679.97;;;12.47;93.69
71976;BME280;68326;52.124;5.424;2024-03-22T10:21:04;101687.97;;;12.44;94.29
71976;BME280;68326;52.124;5.424;2024-03-22T10:23:31;101678.38;;;12.44;93.42
71976;BME280;68326;52.124;5.424;2024-03-22T10:25:57;101673.72;;;12.51;93.11
71976;BME280;68326;52.124;5.424;2024-03-22T10:28:24;101673.97;;;12.45;93.87
71976;BME280;68326;52.124;5.424;2024-03-22T10:30:50;101671.53;;;12.42;93.78
71976;BME280;68326;52.124;5.424;2024-03-22T10:33:18;101668.50;;;12.51;93.80
71976;BME280;68326;52.124;5.424;2024-03-22T10:35:44;101672.16;;;12.47;93.02
71976;BME280;68326;52.124;5.424;2024-03-22T10:38:12;101672.94;;;12.49;93.79
71976;BME280;68326;52.124;5.424;2024-03-22T10:40:41;101671.19;;;12.50;93.79
71976;BME280;68326;52.124;5.424;2024-03-22T10:43:09;101672.16;;;12.47;93.70
71976;BME280;68326;52.124;5.424;2024-03-22T10:45:35;101674.13;;;12.42;93.85
71976;BME280;68326;52.124;5.424;2024-03-22T10:48:02;101678.16;;;12.49;94.45
71976;BME280;68326;52.124;5.424;2024-03-22T10:50:33;101675.47;;;12.51;94.95
71976;BME280;68326;52.124;5.424;2024-03-22T10:53:06;101674.59;;;12.52;94.34
71976;BME280;68326;52.124;5.424;2024-03-22T10:55:35;101678.81;;;12.54;93.64
71976;BME280;68326;52.124;5.424;2024-03-22T10:58:02;101685.97;;;12.49;93.63
71976;BME280;68326;52.124;5.424;2024-03-22T11:00:28;101674.75;;;12.47;93.66
71976;BME280;68326;52.124;5.424;2024-03-22T11:02:55;101676.75;;;12.42;94.54
71976;BME280;68326;52.124;5.424;2024-03-22T11:05:21;101675.75;;;12.44;94.14
71976;BME280;68326;52.124;5.424;2024-03-22T11:07:47;101674.13;;;12.42;94.72
71976;BME280;68326;52.124;5.424;2024-03-22T11:10:13;101664.91;;;12.54;94.98
71976;BME280;68326;52.124;5.424;2024-03-22T11:12:42;101666.88;;;12.68;94.60
71976;BME280;68326;52.124;5.424;2024-03-22T11:15:11;101664.13;;;12.71;94.52
71976;BME280;68326;52.124;5.424;2024-03-22T11:17:37;101663.22;;;12.53;94.85
71976;BME280;68326;52.124;5.424;2024-03-22T11:20:03;101661.94;;;12.61;94.93
71976;BME280;68326;52.124;5.424;2024-03-22T11:22:31;101652.91;;;12.69;94.74
71976;BME280;68326;52.124;5.424;2024-03-22T11:24:57;101650.66;;;12.80;94.55
71976;BME280;68326;52.124;5.424;2024-03-22T11:27:22;101644.50;;;12.81;94.88
71976;BME280;68326;52.124;5.424;2024-03-22T11:29:48;101644.66;;;12.78;95.88
71976;BME280;68326;52.124;5.424;2024-03-22T11:32:16;101647.25;;;12.78;95.09
71976;BME280;68326;52.124;5.424;2024-03-22T11:34:42;101636.75;;;12.79;94.90
71976;BME280;68326;52.124;5.424;2024-03-22T11:37:09;101638.28;;;12.83;95.26
71976;BME280;68326;52.124;5.424;2024-03-22T11:39:38;101635.78;;;12.99;95.14
71976;BME280;68326;52.124;5.424;2024-03-22T11:42:06;101634.97;;;12.99;94.33
71976;BME280;68326;52.124;5.424;2024-03-22T11:44:36;101636.25;;;12.90;94.22
71976;BME280;68326;52.124;5.424;2024-03-22T11:47:03;101629.53;;;12.84;94.50
71976;BME280;68326;52.124;5.424;2024-03-22T11:49:29;101630.38;;;12.85;93.56
71976;BME280;68326;52.124;5.424;2024-03-22T11:51:58;101630.53;;;12.82;94.54
71976;BME280;68326;52.124;5.424;2024-03-22T11:54:23;101627.91;;;12.82;94.03
71976;BME280;68326;52.124;5.424;2024-03-22T11:56:49;101630.03;;;12.93;94.97
71976;BME280;68326;52.124;5.424;2024-03-22T11:59:15;101617.66;;;12.96;95.24
71976;BME280;68326;52.124;5.424;2024-03-22T12:01:44;101621.25;;;12.94;94.20
71976;BME280;68326;52.124;5.424;2024-03-22T12:04:10;101620.75;;;12.85;93.96
71976;BME280;68326;52.124;5.424;2024-03-22T12:06:44;101621.44;;;12.72;93.76
71976;BME280;68326;52.124;5.424;2024-03-22T12:09:11;101622.13;;;12.75;93.83
71976;BME280;68326;52.124;5.424;2024-03-22T12:11:38;101618.19;;;12.67;93.81
71976;BME280;68326;52.124;5.424;2024-03-22T12:14:04;101615.44;;;12.70;93.91
71976;BME280;68326;52.124;5.424;2024-03-22T12:16:30;101618.47;;;12.60;94.12
71976;BME280;68326;52.124;5.424;2024-03-22T12:18:55;101620.16;;;12.61;94.60
71976;BME280;68326;52.124;5.424;2024-03-22T12:21:21;101616.44;;;12.67;94.57
71976;BME280;68326;52.124;5.424;2024-03-22T12:23:46;101612.09;;;12.66;94.58
71976;BME280;68326;52.124;5.424;2024-03-22T12:26:12;101613.31;;;12.59;94.67
71976;BME280;68326;52.124;5.424;2024-03-22T12:28:38;101612.69;;;12.54;94.55
71976;BME280;68326;52.124;5.424;2024-03-22T12:31:04;101609.38;;;12.50;93.63
71976;BME280;68326;52.124;5.424;2024-03-22T12:33:30;101612.81;;;12.51;93.89
71976;BME280;68326;52.124;5.424;2024-03-22T12:35:55;101603.44;;;12.47;93.89
71976;BME280;68326;52.124;5.424;2024-03-22T12:38:21;101604.28;;;12.47;95.05
71976;BME280;68326;52.124;5.424;2024-03-22T12:40:47;101604.88;;;12.54;94.56
71976;BME280;68326;52.124;5.424;2024-03-22T12:43:12;101597.16;;;12.51;94.24